Sea Cloud II — 9HUE6 — position and weather

sailwx.info

Track history (hours):
 
Tides and Currents Weather Stations Pressure Air Temp Water Temp Dewpoint Dewpoint Depression Visibility Wind Speed Wind Dir Waves Ship Positions

Sea Cloud II

Ship's website: http://www.seacloud.com/en/the-ships/sea-cloud-ii.html

Last reported at 2015-Jul-07 23:13 UTC. Time now 2015-Jul-08 06:37 UTC.
Position N 59°41' E 023°35'.

Length 117 m; draft 6 m.

Type: Passenger vessel. MMSI: 248953000.

Date/timePositionNaut miles runAvg speedWind from/ knotsBaromVisibWave heightAir tempDewpointWater temp
2015-Jul-07 23:13N 59°41' E 023°35'710.1
2015-Jul-07 22:30N 59°43' E 023°49'88 4.3
2015-Jul-07 02:07N 60°01' E 026°40'1011.2
2015-Jul-07 01:14N 59°60' E 026°59'8310.6
2015-Jul-06 17:23N 59°59' E 029°46'911.2
2015-Jul-06 16:33N 59°55' E 030°03'6 6.2
2015-Jul-06 15:33N 59°55' E 030°15'1 1.4
2015-Jul-06 14:32N 59°56' E 030°17'0 0.0
2015-Jul-06 13:32N 59°56' E 030°17'0 0.0
2015-Jul-06 12:32N 59°56' E 030°17'0 0.0
2015-Jul-06 11:32N 59°56' E 030°17'0 0.0
2015-Jul-06 10:32N 59°56' E 030°17'0 0.0
2015-Jul-06 09:32N 59°56' E 030°17'0 0.0
2015-Jul-06 08:32N 59°56' E 030°17'0 0.0
2015-Jul-06 07:32N 59°56' E 030°17'0 0.0
2015-Jul-06 06:32N 59°56' E 030°17'0 0.0
2015-Jul-06 05:32N 59°56' E 030°17'0 0.0
2015-Jul-06 04:32N 59°56' E 030°17'0 0.0
2015-Jul-06 03:32N 59°56' E 030°17'0 0.0
2015-Jul-06 02:32N 59°56' E 030°17'0 0.0
2015-Jul-06 01:32N 59°56' E 030°17'0 0.0
2015-Jul-06 00:32N 59°56' E 030°17'0 0.0
2015-Jul-05 23:32N 59°56' E 030°17'0 0.0
2015-Jul-05 22:32N 59°56' E 030°17'0 0.0
2015-Jul-05 21:32N 59°56' E 030°17'0 0.0
2015-Jul-05 20:32N 59°56' E 030°17'0 0.0
2015-Jul-05 19:32N 59°56' E 030°17'0 0.0
2015-Jul-05 18:32N 59°56' E 030°17'0 0.0
2015-Jul-05 17:32N 59°56' E 030°17'0 0.0
2015-Jul-05 16:32N 59°56' E 030°17'0 0.0
2015-Jul-05 15:32N 59°56' E 030°17'0 0.0
2015-Jul-05 14:32N 59°56' E 030°17'0 0.0
2015-Jul-05 13:29N 59°56' E 030°17'0 0.0
2015-Jul-05 12:32N 59°56' E 030°17'0 0.0
2015-Jul-05 11:32N 59°56' E 030°17'0 0.0
2015-Jul-05 10:32N 59°56' E 030°17'0 0.0
2015-Jul-05 09:32N 59°56' E 030°17'0 0.0
2015-Jul-05 08:32N 59°56' E 030°17'0 0.0
2015-Jul-05 07:32N 59°56' E 030°17'0 0.0
2015-Jul-05 06:32N 59°56' E 030°17'0 0.0
2015-Jul-05 05:32N 59°56' E 030°17'0 0.0
2015-Jul-05 04:32N 59°56' E 030°17'4 3.6
2015-Jul-05 03:33N 59°53' E 030°12'9 8.7
2015-Jul-05 02:33N 59°56' E 029°56'1110.8
2015-Jul-05 01:33N 60°00' E 029°36'84 7.6
2015-Jul-04 14:24N 59°59' E 026°48'7 7.1
2015-Jul-04 13:24N 59°58' E 026°34'5 5.6
2015-Jul-04 12:33N 59°56' E 026°26'33 3.3
2015-Jul-04 02:30N 59°48' E 025°22'15 3.1
2015-Jul-03 21:32N 59°57' E 024°58'19 1.1
2015-Jul-03 04:33N 59°48' E 024°24'5 5.2
2015-Jul-03 03:34N 59°49' E 024°34'5 5.0
2015-Jul-03 02:33N 59°50' E 024°44'5 5.2
2015-Jul-03 01:33N 59°52' E 024°54'4 4.2
2015-Jul-03 00:31N 59°48' E 024°59'6 5.8
2015-Jul-02 23:33N 59°44' E 024°52'7 6.9
2015-Jul-02 22:34N 59°38' E 024°43'6 5.9
2015-Jul-02 21:34N 59°32' E 024°44'6 5.2
2015-Jul-02 20:29N 59°27' E 024°46'0 0.0
2015-Jul-02 19:32N 59°27' E 024°46'0 0.0
2015-Jul-02 18:32N 59°27' E 024°46'0 0.0
2015-Jul-02 17:32N 59°27' E 024°46'0 0.0
2015-Jul-02 16:32N 59°27' E 024°46'0 0.0
2015-Jul-02 15:32N 59°27' E 024°46'0 0.0
2015-Jul-02 14:29N 59°27' E 024°46'0 0.0
2015-Jul-02 13:32N 59°27' E 024°46'0 0.0
2015-Jul-02 12:32N 59°27' E 024°46'0 0.0
2015-Jul-02 11:32N 59°27' E 024°46'0 0.3
2015-Jul-02 10:33N 59°27' E 024°46'5 5.3
2015-Jul-02 09:33N 59°30' E 024°38'17 3.5
2015-Jul-02 04:33N 59°33' E 024°04'7 6.9
2015-Jul-02 03:30N 59°32' E 023°50'7 7.1
2015-Jul-02 02:34N 59°30' E 023°37'1110.9
2015-Jul-02 01:32N 59°27' E 023°16'1010.6
2015-Jul-02 00:33N 59°23' E 022°56'146 7.7
2015-Jul-01 05:32N 59°20' E 018°11'0 0.0
2015-Jun-30 06:26N 59°19' E 018°11'127 4.7
2015-Jun-29 03:33N 57°13' E 017°37'116 7.2
2015-Jun-28 11:31N 55°43' E 015°27'4 4.0
2015-Jun-28 10:31N 55°40' E 015°21'5 2.2
2015-Jun-28 08:04N 55°36' E 015°15'1 1.5
2015-Jun-28 07:23N 55°35' E 015°14'9 8.3
2015-Jun-28 06:16N 55°31' E 014°60'811.0
2015-Jun-28 05:33N 55°27' E 014°48'1311.0
2015-Jun-28 04:20N 55°17' E 014°31'911.1
2015-Jun-28 03:33N 55°11' E 014°21'1110.9
2015-Jun-28 02:30N 55°02' E 014°09'  
Track history (hours):
 
Tides and Currents Weather Stations Pressure Air Temp Water Temp Dewpoint Dewpoint Depression Visibility Wind Speed Wind Dir Waves Ship Positions

Sea Cloud II

Ship's website: http://www.seacloud.com/en/the-ships/sea-cloud-ii.html

Last reported at 2015-Jul-07 23:13 UTC. Time now 2015-Jul-08 06:37 UTC.
Position N 59°41' E 023°35'.

Length 117 m; draft 6 m.

Type: Passenger vessel. MMSI: 248953000.

Date/timePositionNaut miles runAvg speedWind from/ knotsBaromVisibWave heightAir tempDewpointWater temp
2015-Jul-07 23:13N 59°41' E 023°35'710.1
2015-Jul-07 22:30N 59°43' E 023°49'88 4.3
2015-Jul-07 02:07N 60°01' E 026°40'1011.2
2015-Jul-07 01:14N 59°60' E 026°59'8310.6
2015-Jul-06 17:23N 59°59' E 029°46'911.2
2015-Jul-06 16:33N 59°55' E 030°03'6 6.2
2015-Jul-06 15:33N 59°55' E 030°15'1 1.4
2015-Jul-06 14:32N 59°56' E 030°17'0 0.0
2015-Jul-06 13:32N 59°56' E 030°17'0 0.0
2015-Jul-06 12:32N 59°56' E 030°17'0 0.0
2015-Jul-06 11:32N 59°56' E 030°17'0 0.0
2015-Jul-06 10:32N 59°56' E 030°17'0 0.0
2015-Jul-06 09:32N 59°56' E 030°17'0 0.0
2015-Jul-06 08:32N 59°56' E 030°17'0 0.0
2015-Jul-06 07:32N 59°56' E 030°17'0 0.0
2015-Jul-06 06:32N 59°56' E 030°17'0 0.0
2015-Jul-06 05:32N 59°56' E 030°17'0 0.0
2015-Jul-06 04:32N 59°56' E 030°17'0 0.0
2015-Jul-06 03:32N 59°56' E 030°17'0 0.0
2015-Jul-06 02:32N 59°56' E 030°17'0 0.0
2015-Jul-06 01:32N 59°56' E 030°17'0 0.0
2015-Jul-06 00:32N 59°56' E 030°17'0 0.0
2015-Jul-05 23:32N 59°56' E 030°17'0 0.0
2015-Jul-05 22:32N 59°56' E 030°17'0 0.0
2015-Jul-05 21:32N 59°56' E 030°17'0 0.0
2015-Jul-05 20:32N 59°56' E 030°17'0 0.0
2015-Jul-05 19:32N 59°56' E 030°17'0 0.0
2015-Jul-05 18:32N 59°56' E 030°17'0 0.0
2015-Jul-05 17:32N 59°56' E 030°17'0 0.0
2015-Jul-05 16:32N 59°56' E 030°17'0 0.0
2015-Jul-05 15:32N 59°56' E 030°17'0 0.0
2015-Jul-05 14:32N 59°56' E 030°17'0 0.0
2015-Jul-05 13:29N 59°56' E 030°17'0 0.0
2015-Jul-05 12:32N 59°56' E 030°17'0 0.0
2015-Jul-05 11:32N 59°56' E 030°17'0 0.0
2015-Jul-05 10:32N 59°56' E 030°17'0 0.0
2015-Jul-05 09:32N 59°56' E 030°17'0 0.0
2015-Jul-05 08:32N 59°56' E 030°17'0 0.0
2015-Jul-05 07:32N 59°56' E 030°17'0 0.0
2015-Jul-05 06:32N 59°56' E 030°17'0 0.0
2015-Jul-05 05:32N 59°56' E 030°17'0 0.0
2015-Jul-05 04:32N 59°56' E 030°17'4 3.6
2015-Jul-05 03:33N 59°53' E 030°12'9 8.7
2015-Jul-05 02:33N 59°56' E 029°56'1110.8
2015-Jul-05 01:33N 60°00' E 029°36'84 7.6
2015-Jul-04 14:24N 59°59' E 026°48'7 7.1
2015-Jul-04 13:24N 59°58' E 026°34'5 5.6
2015-Jul-04 12:33N 59°56' E 026°26'33 3.3
2015-Jul-04 02:30N 59°48' E 025°22'15 3.1
2015-Jul-03 21:32N 59°57' E 024°58'19 1.1
2015-Jul-03 04:33N 59°48' E 024°24'5 5.2
2015-Jul-03 03:34N 59°49' E 024°34'5 5.0
2015-Jul-03 02:33N 59°50' E 024°44'5 5.2
2015-Jul-03 01:33N 59°52' E 024°54'4 4.2
2015-Jul-03 00:31N 59°48' E 024°59'6 5.8
2015-Jul-02 23:33N 59°44' E 024°52'7 6.9
2015-Jul-02 22:34N 59°38' E 024°43'6 5.9
2015-Jul-02 21:34N 59°32' E 024°44'6 5.2
2015-Jul-02 20:29N 59°27' E 024°46'0 0.0
2015-Jul-02 19:32N 59°27' E 024°46'0 0.0
2015-Jul-02 18:32N 59°27' E 024°46'0 0.0
2015-Jul-02 17:32N 59°27' E 024°46'0 0.0
2015-Jul-02 16:32N 59°27' E 024°46'0 0.0
2015-Jul-02 15:32N 59°27' E 024°46'0 0.0
2015-Jul-02 14:29N 59°27' E 024°46'0 0.0
2015-Jul-02 13:32N 59°27' E 024°46'0 0.0
2015-Jul-02 12:32N 59°27' E 024°46'0 0.0
2015-Jul-02 11:32N 59°27' E 024°46'0 0.3
2015-Jul-02 10:33N 59°27' E 024°46'5 5.3
2015-Jul-02 09:33N 59°30' E 024°38'17 3.5
2015-Jul-02 04:33N 59°33' E 024°04'7 6.9
2015-Jul-02 03:30N 59°32' E 023°50'7 7.1
2015-Jul-02 02:34N 59°30' E 023°37'1110.9
2015-Jul-02 01:32N 59°27' E 023°16'1010.6
2015-Jul-02 00:33N 59°23' E 022°56'146 7.7
2015-Jul-01 05:32N 59°20' E 018°11'0 0.0
2015-Jun-30 06:26N 59°19' E 018°11'127 4.7
2015-Jun-29 03:33N 57°13' E 017°37'116 7.2
2015-Jun-28 11:31N 55°43' E 015°27'4 4.0
2015-Jun-28 10:31N 55°40' E 015°21'5 2.2
2015-Jun-28 08:04N 55°36' E 015°15'1 1.5
2015-Jun-28 07:23N 55°35' E 015°14'9 8.3
2015-Jun-28 06:16N 55°31' E 014°60'811.0
2015-Jun-28 05:33N 55°27' E 014°48'1311.0
2015-Jun-28 04:20N 55°17' E 014°31'911.1
2015-Jun-28 03:33N 55°11' E 014°21'1110.9
2015-Jun-28 02:30N 55°02' E 014°09'  

Dump ship's entire track history